地図

経路データ

SID SEASON NUMBER BASIN SUBBASIN NAME ISO_TIME NATURE LAT LON WMO_WIND WMO_PRES WMO_AGENCY TRACK_TYPE DIST2LAND LANDFALL IFLAG USA_AGENCY USA_ATCF_ID USA_LAT USA_LON USA_RECORD USA_STATUS USA_WIND USA_PRES USA_SSHS USA_R34_NE USA_R34_SE USA_R34_SW USA_R34_NW USA_R50_NE USA_R50_SE USA_R50_SW USA_R50_NW USA_R64_NE USA_R64_SE USA_R64_SW USA_R64_NW USA_POCI USA_ROCI USA_RMW USA_EYE TOKYO_LAT TOKYO_LON TOKYO_GRADE TOKYO_WIND TOKYO_PRES TOKYO_R50_DIR TOKYO_R50_LONG TOKYO_R50_SHORT TOKYO_R30_DIR TOKYO_R30_LONG TOKYO_R30_SHORT TOKYO_LAND CMA_LAT CMA_LON CMA_CAT CMA_WIND CMA_PRES HKO_LAT HKO_LON HKO_CAT HKO_WIND HKO_PRES NEWDELHI_LAT NEWDELHI_LON NEWDELHI_GRADE NEWDELHI_WIND NEWDELHI_PRES NEWDELHI_CI NEWDELHI_DP NEWDELHI_POCI REUNION_LAT REUNION_LON REUNION_TYPE REUNION_WIND REUNION_PRES REUNION_TNUM REUNION_CI REUNION_RMW REUNION_R34_NE REUNION_R34_SE REUNION_R34_SW REUNION_R34_NW REUNION_R50_NE REUNION_R50_SE REUNION_R50_SW REUNION_R50_NW REUNION_R64_NE REUNION_R64_SE REUNION_R64_SW REUNION_R64_NW BOM_LAT BOM_LON BOM_TYPE BOM_WIND BOM_PRES BOM_TNUM BOM_CI BOM_RMW BOM_R34_NE BOM_R34_SE BOM_R34_SW BOM_R34_NW BOM_R50_NE BOM_R50_SE BOM_R50_SW BOM_R50_NW BOM_R64_NE BOM_R64_SE BOM_R64_SW BOM_R64_NW BOM_ROCI BOM_POCI BOM_EYE BOM_POS_METHOD BOM_PRES_METHOD NADI_LAT NADI_LON NADI_CAT NADI_WIND NADI_PRES WELLINGTON_LAT WELLINGTON_LON WELLINGTON_WIND WELLINGTON_PRES DS824_LAT DS824_LON DS824_STAGE DS824_WIND DS824_PRES TD9636_LAT TD9636_LON TD9636_STAGE TD9636_WIND TD9636_PRES TD9635_LAT TD9635_LON TD9635_WIND TD9635_PRES TD9635_ROCI NEUMANN_LAT NEUMANN_LON NEUMANN_CLASS NEUMANN_WIND NEUMANN_PRES MLC_LAT MLC_LON MLC_CLASS MLC_WIND MLC_PRES USA_GUST BOM_GUST BOM_GUST_PER REUNION_GUST REUNION_GUST_PER USA_SEAHGT USA_SEARAD_NE USA_SEARAD_SE USA_SEARAD_SW USA_SEARAD_NW STORM_SPEED STORM_DIR
1981225N16249 1981 64 EP MM GREG 1981-08-13 06:00:00 TS 16.2000 -111.400 30 hurdat_epa main 754 754 O_________O___ hurdat_epa EP071981 16.2000 -111.400 TD 30 -1 16.2000 -111.400 1 30 4 309
1981225N16249 1981 64 EP MM GREG 1981-08-13 09:00:00 TS 16.3103 -111.542 main 754 746 P_________P___ EP071981 16.3100 -111.542 TD 30 -1 16.3111 -111.541 1 30 4 305
1981225N16249 1981 64 EP MM GREG 1981-08-13 12:00:00 TS 16.4000 -111.700 30 hurdat_epa main 748 742 O_________O___ hurdat_epa EP071981 16.4000 -111.700 TD 30 -1 16.4000 -111.700 1 30 4 294
1981225N16249 1981 64 EP MM GREG 1981-08-13 15:00:00 TS 16.4562 -111.886 main 742 742 P_________P___ EP071981 16.4575 -111.885 TD 30 -1 16.4525 -111.889 1 30 4 284
1981225N16249 1981 64 EP MM GREG 1981-08-13 18:00:00 TS 16.4966 -112.102 30 hurdat_epa main 748 748 O_________P___ hurdat_epa EP071981 16.5000 -112.100 TD 30 -1 16.4863 -112.106 1 30 4 281
1981225N16249 1981 64 EP MM GREG 1981-08-13 21:00:00 TS 16.5386 -112.338 main 755 748 P_________P___ EP071981 16.5425 -112.335 TD 30 -1 16.5269 -112.345 1 30 5 282
1981225N16249 1981 64 EP MM GREG 1981-08-14 00:00:00 TS 16.6000 -112.600 30 hurdat_epa main 755 752 O_________O___ hurdat_epa EP071981 16.6000 -112.600 TD 30 -1 16.6000 -112.600 1 30 5 286
1981225N16249 1981 64 EP MM GREG 1981-08-14 03:00:00 TS 16.6862 -112.885 main 756 750 P_________P___ EP071981 16.6700 -112.900 TD 30 -1 16.7348 -112.840 1 30 6 292
1981225N16249 1981 64 EP MM GREG 1981-08-14 06:00:00 TS 16.8262 -113.174 30 hurdat_epa main 759 744 O_________P___ hurdat_epa EP071981 16.8000 -113.200 TD 30 -1 16.9046 -113.098 1 30 6 305
1981225N16249 1981 64 EP MM GREG 1981-08-14 09:00:00 TS 17.0505 -113.438 main 739 735 P_________P___ EP071981 17.0349 -113.457 TD 30 -1 17.0972 -113.381 1 30 7 313
1981225N16249 1981 64 EP MM GREG 1981-08-14 12:00:00 TS 17.3000 -113.700 30 hurdat_epa main 735 728 O_________O___ hurdat_epa EP071981 17.3000 -113.700 TD 30 -1 17.3000 -113.700 1 30 7 313
1981225N16249 1981 64 EP MM GREG 1981-08-14 15:00:00 TS 17.5046 -113.944 main 728 724 P_________P___ EP071981 17.5072 -113.905 TD 35 0 17.4969 -114.060 1 32 7 307
1981225N16249 1981 64 EP MM GREG 1981-08-14 18:00:00 TS 17.7000 -114.264 40 hurdat_epa main 734 731 O_________P___ hurdat_epa EP071981 17.7000 -114.200 TS 40 0 17.7000 -114.455 1 35 9 297
1981225N16249 1981 64 EP MM GREG 1981-08-14 21:00:00 TS 17.9066 -114.758 main 750 748 P_________P___ EP071981 17.9078 -114.720 TS 40 0 17.9031 -114.873 1 37 11 292
1981225N16249 1981 64 EP MM GREG 1981-08-15 00:00:00 TS 18.1000 -115.300 40 hurdat_epa main 769 769 O_________O___ hurdat_epa EP071981 18.1000 -115.300 TS 40 0 18.1000 -115.300 2 40 10 290
1981225N16249 1981 64 EP MM GREG 1981-08-15 03:00:00 TS 18.2547 -115.751 main 792 792 P_________P___ EP071981 18.2498 -115.773 TS 40 0 18.2692 -115.686 2 42 9 290
1981225N16249 1981 64 EP MM GREG 1981-08-15 06:00:00 TS 18.4084 -116.171 40 hurdat_epa main 817 816 O_________P___ hurdat_epa EP071981 18.4000 -116.200 TS 40 0 18.4338 -116.084 2 45 9 293
1981225N16249 1981 64 EP MM GREG 1981-08-15 09:00:00 TS 18.5902 -116.573 main 825 821 P_________P___ EP071981 18.5848 -116.593 TS 45 0 18.6065 -116.515 2 47 9 296
1981225N16249 1981 64 EP MM GREG 1981-08-15 12:00:00 TS 18.8000 -117.000 50 hurdat_epa main 831 828 O_________O___ hurdat_epa EP071981 18.8000 -117.000 TS 50 0 18.8000 -117.000 2 50 10 298
1981225N16249 1981 64 EP MM GREG 1981-08-15 15:00:00 TS 19.0448 -117.477 main 846 837 P_________P___ EP071981 19.0421 -117.448 TS 50 0 19.0530 -117.567 2 50 11 297
1981225N16249 1981 64 EP MM GREG 1981-08-15 18:00:00 TS 19.3057 -118.047 50 hurdat_epa main 856 856 O_________P___ hurdat_epa EP071981 19.3000 -118.000 TS 50 0 19.3227 -118.189 2 50 13 294
1981225N16249 1981 64 EP MM GREG 1981-08-15 21:00:00 TS 19.5748 -118.756 main 893 893 P_________P___ EP071981 19.5728 -118.727 TS 50 0 19.5810 -118.842 2 50 15 290
1981225N16249 1981 64 EP MM GREG 1981-08-16 00:00:00 TS 19.8000 -119.500 50 hurdat_epa main 935 935 O_________O___ hurdat_epa EP071981 19.8000 -119.500 TS 50 0 19.8000 -119.500 2 50 14 285
1981225N16249 1981 64 EP MM GREG 1981-08-16 03:00:00 TS 19.9303 -120.163 main 987 987 P_________P___ EP071981 19.9222 -120.173 TS 52 0 19.9548 -120.134 2 51 12 280
1981225N16249 1981 64 EP MM GREG 1981-08-16 06:00:00 TS 20.0167 -120.791 55 hurdat_epa main 1033 1033 O_________P___ hurdat_epa EP071981 20.0000 -120.800 TS 55 0 20.0669 -120.766 2 52 12 279
1981225N16249 1981 64 EP MM GREG 1981-08-16 09:00:00 TS 20.1225 -121.414 main 1066 1066 P_________P___ EP071981 20.1149 -121.422 TS 55 0 20.1455 -121.390 2 53 12 279
1981225N16249 1981 64 EP MM GREG 1981-08-16 12:00:00 TS 20.2000 -122.000 55 hurdat_epa main 1098 1098 O_________O___ hurdat_epa EP071981 20.2000 -122.000 TS 55 0 20.2000 -122.000 2 55 10 275
1981225N16249 1981 64 EP MM GREG 1981-08-16 15:00:00 TS 20.2198 -122.518 main 1131 1131 P_________P___ EP071981 20.2070 -122.493 TS 52 0 20.2580 -122.594 2 52 10 271
1981225N16249 1981 64 EP MM GREG 1981-08-16 18:00:00 TS 20.2235 -123.043 50 hurdat_epa main 1166 1166 O_________P___ hurdat_epa EP071981 20.2000 -123.000 TS 50 0 20.2941 -123.173 2 50 11 272
1981225N16249 1981 64 EP MM GREG 1981-08-16 21:00:00 TS 20.2647 -123.672 main 1209 1209 P_________P___ EP071981 20.2502 -123.650 TS 47 0 20.3081 -123.740 2 47 12 274
1981225N16249 1981 64 EP MM GREG 1981-08-17 00:00:00 TS 20.3000 -124.300 45 hurdat_epa main 1254 1254 O_________O___ hurdat_epa EP071981 20.3000 -124.300 TS 45 0 20.3000 -124.300 2 45 11 273
1981225N16249 1981 64 EP MM GREG 1981-08-17 03:00:00 TS 20.3173 -124.816 main 1292 1292 P_________P___ EP071981 20.3220 -124.807 TS 45 0 20.3030 -124.840 2 45 10 270
1981225N16249 1981 64 EP MM GREG 1981-08-17 06:00:00 TS 20.2953 -125.319 45 hurdat_epa main 1332 1332 O_________P___ hurdat_epa EP071981 20.3000 -125.300 TS 45 0 20.2810 -125.376 2 45 10 265
1981225N16249 1981 64 EP MM GREG 1981-08-17 09:00:00 TS 20.2327 -125.895 main 1387 1387 P_________P___ EP071981 20.2374 -125.885 TS 45 0 20.2186 -125.924 2 45 11 260
1981225N16249 1981 64 EP MM GREG 1981-08-17 12:00:00 TS 20.1000 -126.500 45 hurdat_epa main 1443 1443 O_________O___ hurdat_epa EP071981 20.1000 -126.500 TS 45 0 20.1000 -126.500 2 45 12 252
1981225N16249 1981 64 EP MM GREG 1981-08-17 15:00:00 TS 19.8749 -127.096 main 1506 1506 P_________P___ EP071981 19.8721 -127.085 TS 40 0 19.8831 -127.131 2 42 13 247
1981225N16249 1981 64 EP MM GREG 1981-08-17 18:00:00 TS 19.6038 -127.722 35 hurdat_epa main 1576 1576 O_________P___ hurdat_epa EP071981 19.6000 -127.700 TS 35 0 19.6150 -127.787 2 40 14 247
1981225N16249 1981 64 EP MM GREG 1981-08-17 21:00:00 TS 19.3361 -128.412 main 1655 1655 P_________P___ EP071981 19.3351 -128.400 TS 35 0 19.3393 -128.450 2 37 14 249
1981225N16249 1981 64 EP MM GREG 1981-08-18 00:00:00 TS 19.1000 -129.100 35 hurdat_epa main 1727 1727 O_________O___ hurdat_epa EP071981 19.1000 -129.100 TS 35 0 19.1000 -129.100 2 35 13 252
1981225N16249 1981 64 EP MM GREG 1981-08-18 03:00:00 TS 18.9288 -129.716 main 1791 1791 P_________P___ EP071981 18.9197 -129.715 TS 37 0 18.9562 -129.721 2 36 12 256
1981225N16249 1981 64 EP MM GREG 1981-08-18 06:00:00 TS 18.8136 -130.307 40 hurdat_epa main 1849 1849 O_________P___ hurdat_epa EP071981 18.8000 -130.300 TS 40 0 18.8542 -130.329 2 37 11 261
1981225N16249 1981 64 EP MM GREG 1981-08-18 09:00:00 TS 18.7505 -130.905 main 1901 1901 P_________P___ EP071981 18.7423 -130.900 TS 40 0 18.7751 -130.922 2 38 11 264
1981225N16249 1981 64 EP MM GREG 1981-08-18 12:00:00 TS 18.7000 -131.500 40 hurdat_epa main 1959 1959 O_________O___ hurdat_epa EP071981 18.7000 -131.500 TS 40 0 18.7000 -131.500 2 40 11 263
1981225N16249 1981 64 EP MM GREG 1981-08-18 15:00:00 TS 18.6043 -132.099 main 2018 2018 P_________P___ EP071981 18.6074 -132.115 TS 40 0 18.5950 -132.052 2 41 11 260
1981225N16249 1981 64 EP MM GREG 1981-08-18 18:00:00 TS 18.4978 -132.673 40 hurdat_epa main 2077 2077 O_________P___ hurdat_epa EP071981 18.5000 -132.700 TS 40 0 18.4912 -132.592 2 42 10 259
1981225N16249 1981 64 EP MM GREG 1981-08-18 21:00:00 TS 18.3976 -133.178 main 2128 2128 P_________P___ EP071981 18.3995 -133.192 TS 42 0 18.3918 -133.136 2 43 10 259
1981225N16249 1981 64 EP MM GREG 1981-08-19 00:00:00 TS 18.3000 -133.700 45 hurdat_epa main 2178 2160 O_________O___ hurdat_epa EP071981 18.3000 -133.700 TS 45 0 18.3000 -133.700 2 45 11 260
1981225N16249 1981 64 EP MM GREG 1981-08-19 03:00:00 TS 18.1959 -134.334 main 2160 2089 P_________P___ EP071981 18.1926 -134.335 TS 42 0 18.2059 -134.332 2 43 12 261
1981225N16249 1981 64 EP MM GREG 1981-08-19 06:00:00 TS 18.1051 -134.995 40 hurdat_epa main 2089 2027 O_________P___ hurdat_epa EP071981 18.1000 -135.000 TS 40 0 18.1205 -134.980 2 42 12 263
1981225N16249 1981 64 EP MM GREG 1981-08-19 09:00:00 TS 18.0441 -135.609 main 2027 1964 P_________P___ EP071981 18.0422 -135.607 TS 40 0 18.0498 -135.613 2 41 12 265
1981225N16249 1981 64 EP MM GREG 1981-08-19 12:00:00 TS 18.0000 -136.200 40 hurdat_epa main 1964 1903 O_________O___ hurdat_epa EP071981 18.0000 -136.200 TS 40 0 18.0000 -136.200 2 40 12 265
1981225N16249 1981 64 EP MM GREG 1981-08-19 15:00:00 TS 17.9461 -136.814 main 1903 1851 P_________P___ EP071981 17.9352 -136.845 TS 40 0 17.9789 -136.719 2 42 11 266
1981225N16249 1981 64 EP MM GREG 1981-08-19 18:00:00 TS 17.9197 -137.347 40 hurdat_epa main 1851 1807 O_________P___ hurdat_epa EP071981 17.9000 -137.400 TS 40 0 17.9788 -137.188 2 45 8 271
1981225N16249 1981 64 EP MM GREG 1981-08-19 21:00:00 TS 17.9539 -137.706 main 1807 1776 P_________P___ EP071981 17.9421 -137.737 TS 45 0 17.9894 -137.613 2 47 6 277
1981225N16249 1981 64 EP MM GREG 1981-08-20 00:00:00 TS 18.0000 -138.000 50 hurdat_epa main 1776 1744 O_________O___ hurdat_epa EP071981 18.0000 -138.000 TS 50 0 18.0000 -138.000 2 50 6 273
1981225N16249 1981 64 EP MM GREG 1981-08-20 03:00:00 TS 17.9903 -138.355 main 1734 1702 P_________P___ EP071981 17.9925 -138.350 TS 57 0 17.9836 -138.368 2 57 7 270
1981225N16249 1981 64 EP MM GREG 1981-08-20 06:00:00 TS 18.0000 -138.700 65 hurdat_epa main 1702 1670 O_________O___ hurdat_epa EP071981 18.0000 -138.700 HU 65 1 18.0000 -138.700 3 65 6 278
1981225N16249 1981 64 EP MM GREG 1981-08-20 09:00:00 TS 18.0784 -139.015 main 1670 1637 P_________P___ EP071981 18.0774 -139.015 HU 65 1 18.0812 -139.015 3 65 6 289
1981225N16249 1981 64 EP MM GREG 1981-08-20 12:00:00 TS 18.2000 -139.300 65 hurdat_epa main 1637 1614 O_________O___ hurdat_epa EP071981 18.2000 -139.300 HU 65 1 18.2000 -139.300 4 65 6 297
1981225N16249 1981 64 EP MM GREG 1981-08-20 15:00:00 TS 18.3429 -139.558 main 1604 1580 P_________P___ EP071981 18.3500 -139.565 HU 57 0 18.3217 -139.537 4 60 5 302
1981225N16249 1981 64 EP MM GREG 1981-08-20 18:00:00 TS 18.4882 -139.787 50 hurdat_epa main 1580 1558 O_________P___ hurdat_epa EP071981 18.5000 -139.800 TS 50 0 18.4529 -139.747 4 55 5 304
1981225N16249 1981 64 EP MM GREG 1981-08-20 21:00:00 TS 18.6011 -139.967 main 1558 1536 P_________P___ EP071981 18.6073 -139.970 TS 47 0 18.5827 -139.958 4 50 4 298
1981225N16249 1981 64 EP CP GREG 1981-08-21 00:00:00 TS 18.7000 -140.200 45 hurdat_epa main 1536 1503 O_________O___ hurdat_epa EP071981 18.7000 -140.200 TS 45 0 18.7000 -140.200 2 45 6 291
1981225N16249 1981 64 EP CP GREG 1981-08-21 03:00:00 TS 18.8124 -140.546 main 1503 1450 P_________P___ EP071981 18.8294 -140.545 TS 45 0 18.8175 -140.485 2 42 8 282
1981225N16249 1981 64 EP CP GREG 1981-08-21 06:00:00 TS 18.8720 -141.039 45 hurdat_epa main 1450 1377 O_________P___ hurdat_epa EP071981 18.9000 -141.100 TS 45 0 18.9169 -140.809 2 40 11 271
1981225N16249 1981 64 EP CP GREG 1981-08-21 09:00:00 TS 18.8308 -141.731 main 1377 1304 P_________P___ EP071981 18.8238 -142.008 TS 40 0 18.9829 -141.179 2 37 13 265
1981225N16249 1981 64 EP CP GREG 1981-08-21 12:00:00 TS 18.7600 -142.420 35 hurdat_epa main 1304 1253 O_________O___ hurdat_epa EP071981 18.7000 -142.900 TS 35 0 19.0000 -141.600 2 35 11 264
1981225N16249 1981 64 EP CP GREG 1981-08-21 15:00:00 TS 18.7155 -142.920 main 1253 1211 P_________P___ EP071981 18.6345 -143.435 TS 32 -1 18.9665 -142.067 2 33 8 264
1981225N16249 1981 64 EP CP GREG 1981-08-21 18:00:00 TS 18.6765 -143.277 30 hurdat_epa main 1211 1190 O_________P___ hurdat_epa EP071981 18.6000 -143.700 TD 30 -1 18.8824 -142.583 2 32 5 263
1981225N16249 1981 64 EP CP GREG 1981-08-21 21:00:00 TS 18.6546 -143.464 main 1190 1170 P_________P___ EP071981 18.6146 -143.670 TD 30 -1 18.7570 -143.132 2 31 4 259
1981225N16249 1981 64 EP CP GREG 1981-08-22 00:00:00 TS 18.6000 -143.700 30 hurdat_epa main 1170 1119 O_________O___ hurdat_epa EP071981 18.6000 -143.700 TD 30 -1 18.6000 -143.700 1 30 8 256
1981225N16249 1981 64 EP CP GREG 1981-08-22 03:00:00 TS 18.4764 -144.240 main 1119 1049 P_________P___ EP071981 18.4879 -144.218 TD 30 -1 18.4380 -144.256 1 30 12 255
1981225N16249 1981 64 EP CP GREG 1981-08-22 06:00:00 TS 18.2895 -144.885 30 hurdat_epa main 1049 1001 O_________P___ hurdat_epa EP071981 18.3000 -144.900 TD 30 -1 18.2473 -144.826 1 30 12 250
1981225N16249 1981 64 EP CP GREG 1981-08-22 09:00:00 TS 18.0583 -145.442 main 1001 946 P_________P___ EP071981 18.0647 -145.450 TD 30 -1 18.0329 -145.408 1 30 12 245
1981225N16249 1981 64 EP CP GREG 1981-08-22 12:00:00 TS 17.8000 -146.000 30 hurdat_epa main 946 890 O_________O___ hurdat_epa EP071981 17.8000 -146.000 TD 30 -1 17.8000 -146.000 1 30 12 245
1981225N16249 1981 64 EP CP GREG 1981-08-22 15:00:00 TS 17.5471 -146.590 main 893 838 P_________P___ EP071981 17.5455 -146.588 TD 27 -1 17.5538 -146.599 1 27 13 246
1981225N16249 1981 64 EP CP GREG 1981-08-22 18:00:00 TS 17.3000 -147.200 25 hurdat_epa main 838 O_________O___ hurdat_epa EP071981 17.3000 -147.200 TD 25 -1 17.3000 -147.200 1 25 13 247

IBTrACS Databaseについて

本データベースは、米国NOAAが公開する1842年以降の世界の熱帯低気圧のベストトラックデータアーカイブInternational Best Track Archive for Climate Stewardship (IBTrACS)を、ウェブで閲覧しやすい形式に変換したものです。

最終更新日:2021-12-08